Weather at Uluyol Border Post Helipad [CLOSED]

Public forecast

Using degrees Celsius for public forecast. Weather courtesy of forecast.io.

Closest aviation weather report (METAR) to Uluyol Border Post Helipad

Closest report is Hatay Airport, 27.1 nm (50.2 km) NNE.

2024/06/15 04:50 (retrieved 53 minutes ago)

LTDA 150450Z 21006KT CAVOK 30/17 Q1004 NOSIG

Closest aviation forecast (TAF) to Uluyol Border Post Helipad

Forecast is more than 6 hours old.

Closest forecast is Haifa International Airport, 194.9 nm (361.0 km) SSW.

2024/06/14 18:00 (retrieved 12 hours ago)

TAF LLHA 141706Z 1418/1518 32006KT CAVOK BECMG 1420/1423 8000 FEW008 PROB30 TEMPO 1501/1505 VRB03KT 5000 BR BKN006 BECMG 1506/1508 28010KT CAVOK BECMG 1515/1517 VRB03KT TX34/1511Z TN25/1503Z